Latest Weather Observations for Emerald

IDQ60801

Issued at 8:02 pm EST Sunday 22 October 2017 (issued every 30 minutes, with the page automatically refreshed every 10 minutes)

About weather observations | Map of weather stations | Latest weather observations for QLD | Other Formats
Station Details ID: 035264 Name: EMERALD AIRPORT Lat: -23.57 Lon: 148.18 Height: 189.4 m
Data from the previous 72 hours. | See also: Recent months at Emerald
Date/Time
EST
Temp
°C
App
Temp
°C
Dew
Point
°C
Rel
Hum
%
Delta-T
°C
Wind Press
QNH
hPa
Press
MSL
hPa
Rain since
9am
mm
Dir  Spd
km/h
Gust
km/h
Spd
kts
Gust
kts
22/08:00pm 20.7 21.1 16.3 76 2.7 E 9 9 5 5 1012.2 - 0.0
22/07:30pm 21.0 20.6 15.3 70 3.4 E 11 15 6 8 1011.9 - 0.0
22/07:00pm 23.0 22.8 13.5 55 5.6 E 7 9 4 5 1011.7 - 0.0
22/06:30pm 23.5 22.3 12.8 51 6.2 E 11 15 6 8 1011.2 - 0.0
22/06:00pm 26.4 24.9 9.3 34 9.5 SSW 7 9 4 5 1010.7 1009.7 0.0
22/05:30pm 27.7 24.5 7.0 27 11.1 SSW 13 15 7 8 1010.4 - 0.0
22/05:00pm 28.5 25.6 8.2 28 11.1 SSW 13 17 7 9 1010.2 - 0.0
22/04:30pm 28.6 25.9 7.2 26 11.6 WSW 11 19 6 10 1010.0 - 0.0
22/04:00pm 28.4 26.5 7.6 27 11.3 S 7 17 4 9 1010.2 - 0.0
22/03:30pm 28.2 25.3 8.0 28 11.0 WSW 13 20 7 11 1010.3 - 0.0
22/03:00pm 27.9 24.8 8.7 30 10.6 WSW 15 20 8 11 1010.6 1009.6 0.0
22/02:30pm 27.7 24.9 8.6 30 10.5 SW 13 20 7 11 1010.9 - 0.0
22/02:00pm 27.8 24.1 8.1 29 10.8 W 17 30 9 16 1011.2 - 0.0
22/01:30pm 27.6 24.8 11.2 36 9.4 W 17 26 9 14 1011.7 - 0.0
22/01:00pm 27.5 24.7 11.5 37 9.2 WSW 17 26 9 14 1012.1 - 0.0
22/12:30pm 25.6 25.0 12.4 43 7.7 ENE 7 11 4 6 1012.5 - 0.0
22/12:00pm 25.7 24.9 12.9 45 7.5 NW 9 13 5 7 1012.8 1011.9 0.0
22/11:30am 24.8 23.5 13.7 50 6.6 S 13 22 7 12 1013.3 - 0.0
22/11:00am 24.9 24.6 15.5 56 5.7 S 11 20 6 11 1013.6 - 0.0
22/10:30am 24.0 22.5 13.2 50 6.3 SSE 13 24 7 13 1014.0 - 0.0
22/10:00am 23.4 20.9 13.6 54 5.8 SSW 19 26 10 14 1014.3 - 0.0
22/09:30am 23.0 21.9 15.3 62 4.6 S 15 26 8 14 1014.4 - 0.0
22/09:00am 22.0 21.0 15.6 67 3.9 SSE 15 20 8 11 1014.5 1013.5 0.8
22/08:30am 21.1 20.0 15.4 70 3.4 SSE 15 20 8 11 1014.5 - 0.8
22/08:00am 20.6 18.8 15.6 73 3.0 SSE 19 24 10 13 1014.4 - 0.8
22/07:30am 19.8 18.3 15.4 76 2.6 SSE 17 22 9 12 1014.3 - 0.8
22/07:00am 19.1 17.8 15.8 81 2.0 SSE 17 20 9 11 1014.2 - 0.8
22/06:30am 18.4 18.8 16.2 87 1.3 SSE 9 13 5 7 1014.0 - 0.8
22/06:00am 17.3 17.1 15.8 91 0.9 SE 11 13 6 7 1013.5 1012.6 0.8
22/05:30am 16.9 16.4 15.8 93 0.7 SSE 13 17 7 9 1013.1 - 0.8
22/05:00am 16.9 17.2 15.9 94 0.6 SSE 9 13 5 7 1013.0 - 0.8
22/04:30am 17.2 17.6 16.2 94 0.6 S 9 13 5 7 1012.8 - 0.8
22/04:00am 17.7 17.5 16.6 93 0.7 S 13 19 7 10 1012.5 - 0.8
22/03:30am 18.0 17.5 16.9 93 0.7 SSE 15 20 8 11 1012.4 - 0.8
22/03:00am 18.5 18.0 17.0 91 0.9 S 15 22 8 12 1012.5 1011.6 0.8
22/02:30am 19.0 19.9 18.3 96 0.4 S 11 17 6 9 1012.7 - 0.8
22/02:00am 19.3 19.7 19.0 98 0.2 S 15 19 8 10 1012.9 - 0.8
22/01:30am 19.1 20.2 18.8 98 0.2 S 11 15 6 8 1013.0 - 0.8
22/01:00am 19.2 22.4 18.9 98 0.2 CALM 0 0 0 0 1013.1 - 0.8
22/12:30am 19.2 22.4 18.9 98 0.2 CALM 0 0 0 0 1013.2 - 0.8
22/12:00am 19.8 22.1 19.5 98 0.2 W 6 9 3 5 1013.6 1012.7 0.8
 
Date/Time
EST
Temp
°C
App
Temp
°C
Dew
Point
°C
Rel
Hum
%
Delta-T
°C
Wind Press
QNH
hPa
Press
MSL
hPa
Rain since
9am
mm
Dir  Spd
km/h
Gust
km/h
Spd
kts
Gust
kts
21/11:30pm 20.0 21.9 19.7 98 0.2 W 9 11 5 6 1014.1 - 0.8
21/11:00pm 19.9 22.1 19.6 98 0.2 ESE 7 9 4 5 1014.1 - 0.8
21/10:30pm 20.0 22.2 19.7 98 0.2 SE 7 9 4 5 1014.3 - 0.8
21/10:00pm 19.3 21.2 19.0 98 0.2 ESE 7 7 4 4 1014.2 - 0.8
21/09:30pm 19.7 21.8 19.4 98 0.2 NE 7 7 4 4 1014.1 - 0.8
21/09:00pm 20.0 22.2 19.7 98 0.2 E 7 7 4 4 1014.0 1013.0 0.8
21/08:30pm 20.3 22.7 20.0 98 0.2 ESE 7 9 4 5 1013.8 - 0.8
21/08:00pm 20.9 23.5 20.1 95 0.5 ENE 6 7 3 4 1013.5 - 0.8
21/07:30pm 21.1 23.6 20.3 95 0.5 ENE 7 9 4 5 1013.4 - 0.8
21/07:00pm 21.5 23.4 19.8 90 1.1 ENE 9 11 5 6 1013.2 - 0.8
21/06:30pm 21.8 23.1 19.2 85 1.7 E 11 13 6 7 1013.0 - 0.8
21/06:00pm 22.8 24.0 19.0 79 2.4 E 11 13 6 7 1012.7 1011.8 0.8
21/05:30pm 23.4 24.0 18.5 74 3.1 SE 13 17 7 9 1012.7 - 0.8
21/05:00pm 24.3 24.1 17.5 66 4.3 SE 15 20 8 11 1012.5 - 0.8
21/04:30pm 25.0 25.1 16.4 59 5.3 SW 11 15 6 8 1012.5 - 0.8
21/04:00pm 25.4 26.5 17.1 60 5.2 WSW 7 13 4 7 1012.5 - 0.8
21/03:30pm 25.0 26.4 16.4 59 5.3 SW 4 13 2 7 1012.6 - 0.8
21/03:00pm 25.2 26.2 16.9 60 5.2 SW 7 11 4 6 1012.9 1012.0 0.8
21/02:30pm 24.7 25.5 17.2 63 4.7 W 9 15 5 8 1013.1 - 0.8
21/02:00pm 24.5 25.6 18.0 67 4.1 SW 9 15 5 8 1013.5 - 0.8
21/01:30pm 23.7 25.9 18.4 72 3.4 NNE 4 7 2 4 1014.1 - 0.8
21/01:00pm 23.1 24.5 18.6 76 2.9 ENE 9 13 5 7 1014.2 - 0.8
21/12:30pm 23.1 25.3 19.1 78 2.6 N 6 9 3 5 1015.4 - 0.8
21/12:00pm 22.1 22.9 19.1 83 1.9 N 13 17 7 9 1015.2 1014.2 0.8
21/11:59am 22.4 24.4 20.7 90 1.1 NNE 11 17 6 9 1015.2 - 0.8
21/11:30am 21.1 23.2 19.0 88 1.3 W 6 13 3 7 1015.4 - 0.8
21/11:26am 21.2 23.2 19.1 88 1.3 NW 7 13 4 7 1016.1 - 0.8
21/11:00am 21.1 23.9 19.6 91 1.0 WNW 4 7 2 4 1015.9 - 0.8
21/10:54am 21.1 23.6 20.3 95 0.5 N 7 13 4 7 1016.2 - 0.8
21/10:44am 21.1 23.5 20.8 98 0.2 N 9 13 5 7 1015.7 - 0.8
21/10:33am 20.4 22.5 20.1 98 0.2 WNW 9 11 5 6 1016.3 - 0.6
21/10:30am 20.4 22.5 20.1 98 0.2 WNW 9 11 5 6 1016.4 - 0.4
21/10:00am 20.4 23.4 20.1 98 0.2 NNW 4 9 2 5 1016.2 - 0.2
21/09:52am 20.3 22.7 20.0 98 0.2 NNW 7 11 4 6 1016.3 - 0.2
21/09:30am 20.4 21.3 20.1 98 0.2 N 15 20 8 11 1015.8 - 0.0
21/09:00am 20.0 20.3 19.7 98 0.2 NNE 17 22 9 12 1015.0 1014.0 9.6
21/08:30am 19.7 20.3 19.4 98 0.2 NNE 15 20 8 11 1015.8 - 9.6
21/08:00am 19.4 19.5 19.1 98 0.2 NE 17 22 9 12 1015.8 - 9.4
21/07:30am 19.0 19.3 18.7 98 0.2 NE 15 20 8 11 1016.0 - 8.8
21/07:00am 18.5 18.5 18.2 98 0.2 NE 15 19 8 10 1016.3 - 8.2
21/06:47am 18.5 18.9 18.2 98 0.2 ENE 13 15 7 8 1016.5 - 7.8
21/06:30am 18.4 18.4 18.1 98 0.2 E 15 20 8 11 1016.4 - 7.6
21/06:03am 18.3 16.9 18.0 98 0.2 SSE 22 28 12 15 1016.4 - 4.2
21/06:00am 18.3 16.6 18.0 98 0.2 SSE 24 30 13 16 1016.3 1015.4 3.6
21/05:30am 19.4 18.1 19.1 98 0.2 SSE 24 30 13 16 1015.9 - 0.4
21/05:29am 19.4 18.5 19.1 98 0.2 SSE 22 30 12 16 1015.9 - 0.4
21/05:17am 20.1 21.3 19.8 98 0.2 SSE 13 17 7 9 1015.7 - 0.4
21/05:00am 19.7 21.0 19.4 98 0.2 SSE 11 13 6 7 1015.5 - 0.4
21/04:30am 19.8 22.1 19.5 98 0.2 W 6 7 3 4 1015.2 - 0.4
21/04:08am 20.0 22.2 19.7 98 0.2 NW 7 11 4 6 1015.1 - 0.4
21/04:00am 20.0 21.9 19.7 98 0.2 NW 9 13 5 7 1015.1 - 0.4
21/03:30am 20.7 22.1 19.5 93 0.8 WNW 11 19 6 10 1015.2 - 0.2
21/03:29am 20.9 22.8 19.7 93 0.8 WNW 9 19 5 10 1015.2 - 0.2
21/03:00am 21.5 23.6 18.9 85 1.6 NW 6 7 3 4 1015.2 1014.2 0.0
21/02:30am 21.6 23.4 18.8 84 1.8 WNW 7 9 4 5 1015.4 - 0.0
21/02:00am 21.5 22.9 18.7 84 1.8 NNW 9 13 5 7 1015.6 - 0.0
21/01:30am 21.5 22.9 18.7 84 1.8 N 9 11 5 6 1015.9 - 0.0
21/01:00am 21.6 23.1 18.8 84 1.8 NNE 9 13 5 7 1015.8 - 0.0
21/12:30am 21.7 22.7 18.7 83 1.9 NNE 11 15 6 8 1015.9 - 0.0
21/12:00am 22.0 23.1 18.8 82 2.0 NE 11 17 6 9 1016.2 1015.3 0.0
 
Date/Time
EST
Temp
°C
App
Temp
°C
Dew
Point
°C
Rel
Hum
%
Delta-T
°C
Wind Press
QNH
hPa
Press
MSL
hPa
Rain since
9am
mm
Dir  Spd
km/h
Gust
km/h
Spd
kts
Gust
kts
20/11:30pm 22.1 23.4 19.3 84 1.8 NE 11 13 6 7 1016.4 - 0.0
20/11:00pm 22.2 23.7 19.0 82 2.0 NE 9 13 5 7 1016.5 - 0.0
20/10:30pm 22.7 23.6 18.5 77 2.7 NE 11 15 6 8 1016.6 - 0.0
20/10:00pm 23.0 23.9 18.5 76 2.9 ENE 11 17 6 9 1016.7 - 0.0
20/09:30pm 22.9 24.1 19.1 79 2.4 ENE 11 13 6 7 1016.7 - 0.0
20/09:00pm 22.6 24.2 19.2 81 2.2 ENE 9 11 5 6 1016.7 1015.8 0.0
20/08:30pm 22.5 24.3 19.5 83 1.9 ENE 9 11 5 6 1016.7 - 0.0
20/08:00pm 22.7 24.9 19.5 82 2.1 E 7 7 4 4 1016.6 - 0.0
20/07:30pm 23.3 25.3 19.2 78 2.6 E 7 9 4 5 1016.4 - 0.0
20/07:00pm 24.0 26.0 19.1 74 3.1 ENE 7 9 4 5 1016.2 - 0.0
20/06:30pm 24.2 25.6 18.6 71 3.6 E 9 11 5 6 1016.1 - 0.0
20/06:00pm 25.5 26.7 17.4 61 5.1 ESE 7 9 4 5 1016.0 1015.1 0.0
20/05:30pm 26.9 26.1 16.2 52 6.6 E 15 17 8 9 1015.9 - 0.0
20/05:00pm 27.1 27.0 16.1 51 6.8 ENE 11 15 6 8 1016.0 - 0.0
20/04:30pm 27.9 28.3 16.2 49 7.3 E 9 17 5 9 1016.1 - 0.0
20/04:00pm 27.3 27.1 16.6 52 6.7 E 13 19 7 10 1016.2 - 0.0
20/03:30pm 28.2 28.4 16.8 50 7.2 E 11 19 6 10 1016.4 - 0.0
20/03:00pm 27.6 27.1 15.9 49 7.2 ENE 13 17 7 9 1016.6 1015.7 0.0
20/02:30pm 27.2 26.7 15.9 50 7.0 E 13 17 7 9 1017.1 - 0.0
20/02:00pm 27.1 27.5 16.4 52 6.7 E 9 17 5 9 1017.5 - 0.0
20/01:30pm 27.2 26.7 16.8 53 6.5 ENE 15 20 8 11 1017.8 - 0.0
20/01:00pm 27.0 27.1 16.6 53 6.5 E 11 20 6 11 1018.2 - 0.0
20/12:30pm 26.4 26.4 16.3 53 6.3 E 11 19 6 10 1018.8 - 0.0
20/12:00pm 26.2 26.0 16.7 56 5.9 E 13 20 7 11 1019.3 1018.3 0.0
20/11:30am 26.0 25.8 16.8 57 5.7 NE 13 19 7 10 1019.6 - 0.0
20/11:00am 25.7 26.0 17.9 62 4.9 NE 13 19 7 10 1019.9 - 0.0
20/10:30am 24.7 23.9 17.2 63 4.7 ENE 17 26 9 14 1020.2 - 0.0
20/10:00am 24.9 24.6 17.4 63 4.7 ENE 15 24 8 13 1020.5 - 0.0
20/09:30am 24.4 23.8 17.6 66 4.3 ENE 17 26 9 14 1020.8 - 0.0
20/09:00am 24.3 23.1 17.5 66 4.3 ENE 20 28 11 15 1020.8 1019.9 0.2
20/08:30am 23.4 22.5 18.3 73 3.2 E 20 28 11 15 1020.7 - 0.2
20/08:00am 22.6 22.4 18.4 77 2.7 E 17 24 9 13 1020.9 - 0.2
20/07:30am 21.7 20.7 17.9 79 2.4 E 20 24 11 13 1020.7 - 0.2
20/07:00am 20.9 21.0 18.3 85 1.6 ESE 15 19 8 10 1020.8 - 0.2
20/06:30am 19.8 21.5 18.6 93 0.8 SSE 7 9 4 5 1020.7 - 0.2
20/06:00am 18.9 20.6 18.6 98 0.2 SE 7 11 4 6 1020.4 1019.4 0.2
20/05:30am 18.7 20.0 18.4 98 0.2 ESE 9 11 5 6 1020.2 - 0.2
20/05:00am 18.9 20.3 18.6 98 0.2 SE 9 13 5 7 1019.9 - 0.2
20/04:30am 18.4 19.2 18.1 98 0.2 SE 11 11 6 6 1019.7 - 0.2
20/04:00am 18.7 20.0 18.4 98 0.2 SE 9 11 5 6 1019.6 - 0.2
20/03:30am 19.0 20.8 18.7 98 0.2 ESE 7 9 4 5 1019.5 - 0.2
20/03:00am 18.9 22.0 18.6 98 0.2 CALM 0 0 0 0 1019.6 1018.6 0.2
20/02:30am 18.5 20.1 18.2 98 0.2 ESE 7 9 4 5 1019.8 - 0.2
20/02:00am 18.9 20.3 18.6 98 0.2 ESE 9 11 5 6 1019.9 - 0.2
20/01:30am 19.5 19.8 18.7 95 0.5 E 15 17 8 9 1020.0 - 0.2
20/01:00am 19.8 20.4 18.6 93 0.8 E 13 22 7 12 1020.3 - 0.2
20/12:30am 20.2 20.4 18.5 90 1.1 E 15 17 8 9 1020.6 - 0.2
20/12:00am 20.7 20.9 18.6 88 1.3 ENE 15 17 8 9 1021.1 1020.2 0.2
 
Date/Time
EST
Temp
°C
App
Temp
°C
Dew
Point
°C
Rel
Hum
%
Delta-T
°C
Wind Press
QNH
hPa
Press
MSL
hPa
Rain since
9am
mm
Dir  Spd
km/h
Gust
km/h
Spd
kts
Gust
kts
19/11:30pm 21.0 20.8 18.4 85 1.6 ENE 17 24 9 13 1021.2 - 0.2
19/11:00pm 21.3 19.7 18.3 83 1.9 ENE 24 32 13 17 1021.7 - 0.2
19/10:30pm 21.5 20.4 18.7 84 1.8 ENE 22 28 12 15 1022.1 - 0.2
19/10:00pm 21.7 20.3 18.7 83 1.9 E 24 35 13 19 1022.0 - 0.2
19/09:30pm 21.8 21.9 19.9 89 1.2 E 19 28 10 15 1021.6 - 0.2
19/09:00pm 22.0 21.3 19.5 86 1.6 E 22 28 12 15 1021.2 1020.3 0.2
19/08:30pm 22.3 20.7 19.3 83 1.9 E 26 35 14 19 1021.1 - 0.2

Other Formats:

Comma delimited format used in spreadsheet applications
http://www.bom.gov.au/fwo/IDQ60801/IDQ60801.94363.axf

JavaScript Object Notation format (JSON) in row-major order
http://www.bom.gov.au/fwo/IDQ60801/IDQ60801.94363.json